Kake Airport Kake US
ICAO: PAFE
IATA:
Category: Medium
Scheduled Services:

Elevation: 172 ft
TransAlt. 18000 ft.

Airport Communications:
AWOS 3:135.25
ANCHORAGE CNTR:118
CTAF:122.9
SITKA RDO:121.3

PAFE Zoom In..

If Map Doesn't Load, Click Here

Runways:

(A) RW 11 length 4000 ft width 100 ft
---- / hdg 109

(B) RW 29 length 4000 ft width 100 ft
---- / hdg 289

Location; PAFE
Day. 21 / Time. 12.56 Zulu
* Altimeter: 30.05
* Temperature: 01° c. 33.8°f.
* Wind from: 060° Speed 06 kn.
Dewpoint: 00° c.
Visibility: 10 Statute Miles.
Clouds: Clear (automated report).

PAFE 211256Z AUTO 06006KT 10SM CLR 01/00 A3005 RMK AO2 SLP189 T00060000 FZRANO


Wind From 060°
Speed 06 kn.

 
 
jpsmedia.com for Web Design worldairports.se 2018   terms of use